Time;durP1;ratioP1;P1;durP2;ratioP2;P2;SDS_P1;SDS_P2;PMS_P1;PMS_P2;Temp;Humidity;BMP_temperature;BMP_pressure;BME280_temperature;BME280_humidity;BME280_pressure;Samples;Min_cycle;Max_cycle;Signal;HPM_P1;HPM_P2
2023/08/15 00:01:20;;;;;;;6.32;3.55;;;;;;;17.72;100.00;99715.72;5138581;28;20108;-60
2023/08/15 00:03:46;;;;;;;7.32;4.88;;;;;;;17.67;100.00;99757.72;5138478;28;20492;-62
2023/08/15 00:06:12;;;;;;;12.10;3.95;;;;;;;17.74;100.00;99732.75;5138370;28;20141;-62
2023/08/15 00:08:38;;;;;;;5.97;4.10;;;;;;;17.75;100.00;99787.00;5137985;27;20057;-62
2023/08/15 00:11:05;;;;;;;7.82;4.10;;;;;;;17.69;100.00;99813.56;5138537;28;20079;-62
2023/08/15 00:13:31;;;;;;;6.20;3.67;;;;;;;17.79;100.00;99818.34;5138184;28;20079;-62
2023/08/15 00:15:57;;;;;;;8.07;4.22;;;;;;;17.85;100.00;99766.81;5138505;28;20047;-62
2023/08/15 00:18:23;;;;;;;9.93;4.70;;;;;;;17.82;100.00;99745.44;5138018;28;20203;-61
2023/08/15 00:20:49;;;;;;;16.20;4.93;;;;;;;17.74;100.00;99777.91;5138443;28;20397;-61
2023/08/15 00:23:15;;;;;;;6.78;4.07;;;;;;;17.72;100.00;99790.59;5138190;28;20395;-62
2023/08/15 00:25:42;;;;;;;6.55;3.67;;;;;;;17.73;100.00;99798.53;5138153;28;20476;-62
2023/08/15 00:28:09;;;;;;;8.85;3.67;;;;;;;17.75;100.00;99817.53;5138023;28;20055;-62
2023/08/15 00:30:35;;;;;;;7.50;3.38;;;;;;;17.61;100.00;99838.53;5138043;28;20146;-62
2023/08/15 00:33:02;;;;;;;8.15;3.85;;;;;;;17.62;100.00;99864.25;5138100;28;20055;-61
2023/08/15 00:35:27;;;;;;;10.38;4.53;;;;;;;17.48;100.00;99928.00;5137890;28;20051;-59
2023/08/15 00:37:53;;;;;;;6.35;3.58;;;;;;;17.44;100.00;99966.03;5138034;27;20054;-60
2023/08/15 00:40:19;;;;;;;8.10;4.75;;;;;;;17.46;100.00;99939.50;5137746;28;20377;-61
2023/08/15 00:42:45;;;;;;;8.50;3.60;;;;;;;17.36;100.00;99957.69;5138062;28;20313;-62
2023/08/15 00:45:12;;;;;;;8.60;3.38;;;;;;;17.40;100.00;99961.25;5137942;28;20089;-62
2023/08/15 00:47:38;;;;;;;8.45;4.93;;;;;;;17.37;100.00;99947.41;5137987;28;20047;-62
2023/08/15 00:50:07;;;;;;;6.78;3.30;;;;;;;17.36;100.00;99962.41;5137387;28;20421;-61
2023/08/15 00:52:34;;;;;;;8.85;3.90;;;;;;;17.31;100.00;99969.16;5137684;28;20107;-62
2023/08/15 00:55:00;;;;;;;8.90;4.47;;;;;;;17.31;100.00;99991.31;5137459;28;20173;-60
2023/08/15 00:57:26;;;;;;;7.97;4.22;;;;;;;17.23;100.00;99991.66;5137557;28;20047;-60
2023/08/15 00:59:52;;;;;;;7.80;3.92;;;;;;;17.18;100.00;100028.88;5137970;28;20436;-59
2023/08/15 01:02:19;;;;;;;7.75;3.75;;;;;;;17.08;100.00;100066.41;5137380;27;20054;-61
2023/08/15 01:04:45;;;;;;;8.63;4.80;;;;;;;17.09;100.00;100068.03;5137240;28;20335;-60
2023/08/15 01:07:11;;;;;;;9.80;4.63;;;;;;;16.93;100.00;100098.00;5137568;27;20058;-61
2023/08/15 01:09:37;;;;;;;11.70;4.10;;;;;;;16.93;100.00;100154.19;5137628;28;20061;-62
2023/08/15 01:12:12;;;;;;;13.32;3.80;;;;;;;16.99;100.00;100148.25;5137323;28;20141;-59
2023/08/15 01:14:42;;;;;;;9.40;4.93;;;;;;;17.00;100.00;100119.41;5137096;28;20047;-60
2023/08/15 01:17:12;;;;;;;4.65;3.38;;;;;;;16.89;100.00;100145.06;5137046;28;20413;-62
2023/08/15 01:19:43;;;;;;;10.73;3.83;;;;;;;17.02;100.00;100148.28;5137060;28;20546;-59
2023/08/15 01:22:15;;;;;;;9.43;4.25;;;;;;;16.94;100.00;100130.03;5137414;28;20126;-62
2023/08/15 01:24:42;;;;;;;6.18;4.80;;;;;;;16.92;100.00;100133.19;5137283;28;20051;-59
2023/08/15 01:27:08;;;;;;;8.95;3.65;;;;;;;17.04;100.00;100148.72;5137361;28;20142;-62
2023/08/15 01:29:34;;;;;;;8.10;3.58;;;;;;;16.94;100.00;100144.69;5136921;28;20186;-62
2023/08/15 01:32:08;;;;;;;9.43;4.25;;;;;;;16.96;100.00;100157.34;5137195;28;20048;-61
2023/08/15 01:34:41;;;;;;;7.55;4.35;;;;;;;16.85;100.00;100152.50;5136999;28;20391;-61
2023/08/15 01:37:14;;;;;;;7.45;4.28;;;;;;;16.85;100.00;100169.13;5137399;28;20115;-62
2023/08/15 01:39:44;;;;;;;8.02;4.35;;;;;;;16.89;100.00;100171.94;5137154;28;20138;-62
2023/08/15 01:42:12;;;;;;;6.88;4.47;;;;;;;16.85;100.00;100179.41;5136789;28;20107;-60
2023/08/15 01:44:38;;;;;;;17.02;4.50;;;;;;;16.90;100.00;100176.31;5136889;28;20455;-60
2023/08/15 01:47:04;;;;;;;9.40;4.50;;;;;;;16.90;100.00;100170.78;5136995;28;20043;-62
2023/08/15 01:49:30;;;;;;;10.35;4.93;;;;;;;16.82;100.00;100172.66;5136966;28;20146;-60
2023/08/15 01:51:57;;;;;;;8.88;5.05;;;;;;;16.86;100.00;100189.31;5136831;28;20095;-59
2023/08/15 01:54:23;;;;;;;8.77;5.57;;;;;;;16.85;100.00;100176.66;5136936;28;20423;-61
2023/08/15 01:56:49;;;;;;;13.30;4.45;;;;;;;16.83;100.00;100179.03;5136682;28;20055;-61
2023/08/15 01:59:15;;;;;;;8.50;5.97;;;;;;;16.75;100.00;100178.13;5137034;28;20148;-60
2023/08/15 02:01:41;;;;;;;8.27;4.50;;;;;;;16.63;100.00;100189.50;5136624;28;20067;-62
2023/08/15 02:04:07;;;;;;;14.88;4.63;;;;;;;16.63;100.00;100208.88;5137009;28;20294;-61
2023/08/15 02:06:33;;;;;;;8.25;4.10;;;;;;;16.67;100.00;100210.47;5136539;28;20150;-62
2023/08/15 02:08:59;;;;;;;10.52;4.32;;;;;;;16.69;100.00;100210.09;5136313;27;20062;-62
2023/08/15 02:11:25;;;;;;;10.63;4.45;;;;;;;16.72;100.00;100201.03;5136782;28;20059;-61
2023/08/15 02:13:54;;;;;;;8.38;5.38;;;;;;;16.73;100.00;100196.28;5136718;27;20055;-59
2023/08/15 02:16:19;;;;;;;8.02;5.43;;;;;;;16.66;100.00;100192.28;5140059;28;20047;-61
2023/08/15 02:18:45;;;;;;;7.53;4.38;;;;;;;16.72;100.00;100206.56;5139866;28;20055;-59
2023/08/15 02:21:11;;;;;;;10.75;4.63;;;;;;;16.54;100.00;100206.41;5140169;28;20050;-59
2023/08/15 02:23:37;;;;;;;6.47;4.20;;;;;;;16.60;100.00;100221.50;5139969;28;20134;-59
2023/08/15 02:26:03;;;;;;;8.57;4.25;;;;;;;16.22;100.00;100251.09;5140449;28;20050;-60
2023/08/15 02:28:31;;;;;;;7.10;4.13;;;;;;;16.50;100.00;100254.59;5139657;28;20047;-61
2023/08/15 02:30:57;;;;;;;9.85;4.53;;;;;;;16.61;100.00;100249.97;5140149;28;20051;-61
2023/08/15 02:33:23;;;;;;;10.93;5.93;;;;;;;16.59;100.00;100244.00;5139704;28;20452;-61
2023/08/15 02:35:51;;;;;;;7.45;5.65;;;;;;;16.48;100.00;100233.63;5140141;28;20076;-62
2023/08/15 02:38:17;;;;;;;7.20;4.78;;;;;;;16.47;100.00;100245.06;5139420;27;20420;-62
2023/08/15 02:40:43;;;;;;;6.93;4.60;;;;;;;16.46;100.00;100249.81;5139884;28;20138;-61
2023/08/15 02:43:09;;;;;;;6.95;4.35;;;;;;;16.51;100.00;100247.88;5139838;28;20089;-59
2023/08/15 02:45:35;;;;;;;7.13;5.18;;;;;;;16.56;100.00;100248.34;5139708;28;20107;-59
2023/08/15 02:48:01;;;;;;;11.60;5.15;;;;;;;16.58;100.00;100253.50;5139456;28;20047;-62
2023/08/15 02:50:27;;;;;;;6.55;4.60;;;;;;;16.52;100.00;100255.78;5139585;28;20047;-61
2023/08/15 02:52:53;;;;;;;6.97;4.82;;;;;;;16.58;100.00;100262.59;5139773;28;20051;-61
2023/08/15 02:55:19;;;;;;;7.75;4.90;;;;;;;16.60;100.00;100268.56;5139552;28;20416;-60
2023/08/15 02:57:45;;;;;;;6.75;4.00;;;;;;;16.62;100.00;100263.41;5139774;28;20143;-60
2023/08/15 03:00:12;;;;;;;6.95;4.60;;;;;;;16.65;100.00;100262.66;5139236;28;20059;-59
2023/08/15 03:02:39;;;;;;;7.30;4.15;;;;;;;16.66;100.00;100266.22;5139251;28;20057;-59
2023/08/15 03:05:06;;;;;;;6.10;3.58;;;;;;;16.65;100.00;100267.41;5138977;28;20051;-60
2023/08/15 03:07:32;;;;;;;7.15;4.18;;;;;;;16.80;100.00;100260.88;5139007;27;20078;-59
2023/08/15 03:09:57;;;;;;;10.95;5.47;;;;;;;16.73;100.00;100244.16;5138991;28;20188;-59
2023/08/15 03:12:23;;;;;;;8.43;4.78;;;;;;;16.66;100.00;100253.19;5139237;28;20104;-59
2023/08/15 03:14:49;;;;;;;7.90;5.65;;;;;;;16.69;100.00;100257.97;5139561;28;20419;-61
2023/08/15 03:17:15;;;;;;;10.38;3.90;;;;;;;16.69;100.00;100254.38;5139162;28;20076;-60
2023/08/15 03:19:41;;;;;;;4.63;4.07;;;;;;;16.84;100.00;100242.31;5139146;28;20055;-62
2023/08/15 03:22:08;;;;;;;6.95;5.15;;;;;;;16.96;100.00;100232.13;5139066;28;20079;-60
2023/08/15 03:24:34;;;;;;;5.15;3.80;;;;;;;17.21;100.00;100202.66;5139296;28;20134;-60
2023/08/15 03:27:00;;;;;;;11.00;3.80;;;;;;;17.49;100.00;100165.22;5137521;27;20420;-59
2023/08/15 03:29:26;;;;;;;6.43;3.70;;;;;;;17.68;100.00;100067.88;5139115;28;20059;-60
2023/08/15 03:31:55;;;;;;;4.72;4.03;;;;;;;17.71;100.00;100078.19;5138706;28;20104;-61
2023/08/15 03:34:21;;;;;;;8.75;3.90;;;;;;;17.79;100.00;100051.28;5139130;28;20047;-61
2023/08/15 03:36:47;;;;;;;8.57;4.32;;;;;;;17.87;100.00;100044.59;5138819;28;20054;-59
2023/08/15 03:39:14;;;;;;;5.57;3.88;;;;;;;17.93;100.00;100050.56;5138804;27;20055;-60
2023/08/15 03:41:40;;;;;;;7.40;3.95;;;;;;;17.81;100.00;100091.31;5138824;28;20469;-59
2023/08/15 03:44:06;;;;;;;8.65;3.55;;;;;;;18.01;100.00;99986.34;5138736;28;20059;-60
2023/08/15 03:46:32;;;;;;;5.75;3.25;;;;;;;18.32;100.00;99848.75;5138641;28;20420;-62
2023/08/15 03:48:58;;;;;;;5.70;3.60;;;;;;;18.65;100.00;99805.00;5138587;28;20050;-62
2023/08/15 03:51:24;;;;;;;6.70;4.38;;;;;;;18.73;100.00;99678.06;5139083;28;20079;-61
2023/08/15 03:53:50;;;;;;;8.05;3.47;;;;;;;19.18;100.00;99695.53;5138733;28;20142;-59
2023/08/15 03:56:16;;;;;;;7.15;3.67;;;;;;;19.64;100.00;99548.94;5138735;28;20130;-61
2023/08/15 03:58:42;;;;;;;5.93;4.25;;;;;;;19.81;100.00;99466.44;5138338;28;20339;-60
2023/08/15 04:01:08;;;;;;;11.85;3.42;;;;;;;19.87;100.00;99306.19;5139015;28;20078;-59
2023/08/15 04:03:35;;;;;;;10.20;4.57;;;;;;;19.82;100.00;99279.63;5138290;28;20075;-62
2023/08/15 04:06:01;;;;;;;6.47;3.65;;;;;;;20.05;100.00;99245.41;5138663;28;20067;-62
2023/08/15 04:08:27;;;;;;;8.25;3.45;;;;;;;20.55;100.00;99166.44;5138278;27;20088;-60
2023/08/15 04:10:54;;;;;;;8.38;3.30;;;;;;;21.08;100.00;99027.03;5138425;28;20137;-60
2023/08/15 04:13:21;;;;;;;9.52;2.67;;;;;;;20.95;100.00;98942.59;5138412;28;20051;-63
2023/08/15 04:15:46;;;;;;;6.30;3.50;;;;;;;20.80;100.00;98987.56;5137974;28;20096;-63
2023/08/15 04:18:12;;;;;;;5.90;3.17;;;;;;;20.83;100.00;99048.00;5137947;28;20061;-63
2023/08/15 04:20:40;;;;;;;5.88;3.10;;;;;;;20.84;100.00;99015.34;5137889;28;20058;-61
2023/08/15 04:23:06;;;;;;;5.78;2.80;;;;;;;20.89;100.00;99014.78;5138312;28;20134;-61
2023/08/15 04:25:33;;;;;;;4.70;3.22;;;;;;;20.86;100.00;98988.63;5137989;28;20047;-60
2023/08/15 04:27:58;;;;;;;6.13;3.28;;;;;;;21.00;100.00;98970.72;5138239;28;20133;-60
2023/08/15 04:30:25;;;;;;;3.72;2.80;;;;;;;21.14;100.00;98906.22;5137792;28;20601;-59
2023/08/15 04:32:51;;;;;;;5.72;2.70;;;;;;;20.98;100.00;98908.28;5138221;28;20051;-63
2023/08/15 04:35:17;;;;;;;4.88;2.95;;;;;;;21.28;100.00;98912.59;5137976;28;20317;-62
2023/08/15 04:37:43;;;;;;;5.45;2.97;;;;;;;21.31;100.00;98917.28;5137386;27;20077;-62
2023/08/15 04:40:12;;;;;;;9.98;3.08;;;;;;;21.31;100.00;98906.13;5137870;28;20120;-61
2023/08/15 04:42:38;;;;;;;6.50;2.95;;;;;;;21.32;100.00;98872.22;5137740;28;20051;-61
2023/08/15 04:45:05;;;;;;;6.10;2.95;;;;;;;20.80;100.00;98914.38;5137700;28;20047;-61
2023/08/15 04:47:32;;;;;;;10.38;3.35;;;;;;;20.82;100.00;99037.28;5137718;28;20388;-61
2023/08/15 04:49:58;;;;;;;5.00;2.45;;;;;;;21.10;100.00;98927.84;5137822;28;20051;-60
2023/08/15 04:52:25;;;;;;;7.47;3.15;;;;;;;21.12;100.00;98897.50;5137414;28;20488;-60
2023/08/15 04:54:52;;;;;;;10.00;2.50;;;;;;;21.03;100.00;98880.66;5137815;28;20074;-63
2023/08/15 04:57:18;;;;;;;4.20;2.53;;;;;;;21.20;100.00;98873.00;5137167;28;20058;-60
2023/08/15 04:59:43;;;;;;;6.00;3.05;;;;;;;21.15;100.00;98871.53;5137805;28;20392;-61
2023/08/15 05:02:09;;;;;;;5.70;3.28;;;;;;;21.16;100.00;98863.97;5137176;28;20138;-61
2023/08/15 05:04:36;;;;;;;10.88;3.30;;;;;;;21.11;100.00;98858.94;5137129;28;20108;-61
2023/08/15 05:07:02;;;;;;;4.20;2.90;;;;;;;21.12;100.00;98877.22;5137195;28;20057;-62
2023/08/15 05:09:29;;;;;;;5.65;3.03;;;;;;;21.19;100.00;98898.50;5137266;27;20158;-61
2023/08/15 05:11:55;;;;;;;3.17;2.88;;;;;;;21.20;100.00;98912.03;5137315;28;20196;-60
2023/08/15 05:14:21;;;;;;;12.52;4.60;;;;;;;21.12;100.00;98900.28;5137198;28;20417;-61
2023/08/15 05:16:47;;;;;;;10.18;3.08;;;;;;;21.23;100.00;98882.50;5137332;28;20127;-60
2023/08/15 05:19:13;;;;;;;5.63;3.20;;;;;;;21.20;100.00;98884.16;5137054;28;20115;-61
2023/08/15 05:21:41;;;;;;;10.50;3.78;;;;;;;21.21;100.00;98882.13;5137228;28;20047;-62
2023/08/15 05:24:07;;;;;;;6.07;3.17;;;;;;;21.23;100.00;98908.34;5137038;28;20130;-61
2023/08/15 05:26:33;;;;;;;8.40;3.42;;;;;;;21.35;100.00;98890.09;5137368;28;20130;-61
2023/08/15 05:28:59;;;;;;;3.75;3.17;;;;;;;21.59;100.00;98916.47;5136735;28;20385;-60
2023/08/15 05:31:25;;;;;;;8.63;3.83;;;;;;;21.78;100.00;98939.00;5137176;28;20058;-59
2023/08/15 05:33:50;;;;;;;6.95;3.80;;;;;;;21.88;100.00;98932.28;5137100;28;20047;-59
2023/08/15 05:36:16;;;;;;;4.43;3.30;;;;;;;21.90;100.00;98945.81;5136763;28;20089;-61
2023/08/15 05:38:43;;;;;;;10.73;3.90;;;;;;;22.53;100.00;99009.22;5136614;27;20055;-62
2023/08/15 05:41:09;;;;;;;3.85;2.53;;;;;;;22.34;100.00;99138.69;5136975;28;20399;-61
2023/08/15 05:43:35;;;;;;;4.95;2.60;;;;;;;22.27;100.00;99148.06;5137063;28;20088;-61
2023/08/15 05:46:00;;;;;;;6.75;2.75;;;;;;;22.25;100.00;99083.50;5136900;28;20071;-61
2023/08/15 05:48:29;;;;;;;3.95;2.60;;;;;;;22.38;100.00;99083.50;5136928;27;20077;-59
2023/08/15 05:50:55;;;;;;;6.03;2.90;;;;;;;22.19;100.00;99146.72;5139916;28;20047;-62
2023/08/15 05:53:21;;;;;;;4.35;2.53;;;;;;;22.09;100.00;99115.88;5140730;28;20397;-62
2023/08/15 05:55:47;;;;;;;3.45;2.40;;;;;;;22.29;100.00;99081.38;5140201;28;20051;-61
2023/08/15 05:58:13;;;;;;;3.35;2.58;;;;;;;22.52;100.00;99078.25;5140598;28;20100;-62
2023/08/15 06:00:40;;;;;;;6.28;2.85;;;;;;;22.78;100.00;99139.69;5139932;28;20354;-62
2023/08/15 06:03:06;;;;;;;3.00;2.20;;;;;;;22.86;100.00;99180.19;5140461;28;20051;-63
2023/08/15 06:05:32;;;;;;;4.40;2.30;;;;;;;23.74;100.00;99228.03;5140223;28;20076;-61
2023/08/15 06:07:59;;;;;;;4.05;2.75;;;;;;;24.32;100.00;99313.63;5140103;27;20050;-60
2023/08/15 06:10:25;;;;;;;2.47;2.00;;;;;;;23.95;100.00;99398.09;5139931;28;20332;-62
2023/08/15 06:12:51;;;;;;;5.65;2.20;;;;;;;25.97;100.00;99465.34;5139656;28;20058;-60
2023/08/15 06:15:18;;;;;;;2.67;2.25;;;;;;;25.59;100.00;99505.69;5140103;28;20196;-61
2023/08/15 06:17:43;;;;;;;6.45;2.72;;;;;;;26.78;100.00;99563.63;5139682;28;20184;-62
2023/08/15 06:20:11;;;;;;;2.72;1.88;;;;;;;26.87;100.00;99586.94;5139720;28;20146;-62
2023/08/15 06:22:37;;;;;;;2.75;2.13;;;;;;;28.08;100.00;99614.59;5139839;28;20047;-60
2023/08/15 06:25:03;;;;;;;8.48;2.55;;;;;;;28.84;100.00;99628.69;5140340;28;20058;-63
2023/08/15 06:27:29;;;;;;;4.05;1.95;;;;;;;29.33;100.00;99640.78;5139785;28;20047;-69
2023/08/15 06:29:55;;;;;;;2.58;1.90;;;;;;;29.71;100.00;99665.44;5139445;28;20061;-66
2023/08/15 06:32:25;;;;;;;2.65;2.08;;;;;;;28.33;100.00;99664.16;5139688;28;20055;-68
2023/08/15 06:34:50;;;;;;;7.07;1.85;;;;;;;29.82;100.00;99657.16;5140021;28;20137;-64
2023/08/15 06:37:16;;;;;;;3.35;2.20;;;;;;;29.96;100.00;99669.78;5139694;27;20099;-61
2023/08/15 06:39:42;;;;;;;2.72;2.03;;;;;;;30.36;100.00;99677.69;5139621;28;20051;-63
2023/08/15 06:42:10;;;;;;;5.40;2.08;;;;;;;29.45;100.00;99665.16;5139643;28;20126;-65
2023/08/15 06:44:36;;;;;;;4.68;1.95;;;;;;;30.73;95.51;99685.72;5139392;28;20099;-63
2023/08/15 06:47:03;;;;;;;3.72;1.83;;;;;;;31.20;92.58;99683.84;5139750;28;20054;-61
2023/08/15 06:49:29;;;;;;;4.93;2.40;;;;;;;30.66;95.88;99677.66;5139170;28;20047;-64
2023/08/15 06:51:55;;;;;;;3.58;2.38;;;;;;;31.04;93.92;99673.84;5139891;28;20080;-61
2023/08/15 06:54:21;;;;;;;8.57;2.63;;;;;;;30.47;100.00;99672.22;5140483;28;20050;-62
2023/08/15 06:56:47;;;;;;;7.15;2.53;;;;;;;30.22;96.58;99686.94;5141219;28;20398;-68
2023/08/15 06:59:13;;;;;;;5.00;2.60;;;;;;;31.26;91.33;99678.25;5138998;28;20100;-67
2023/08/15 07:01:39;;;;;;;5.38;2.17;;;;;;;31.70;89.17;99686.53;5139902;27;20054;-68
2023/08/15 07:04:06;;;;;;;5.10;2.00;;;;;;;31.83;90.02;99686.94;5139513;28;20051;-62
2023/08/15 07:06:32;;;;;;;5.53;1.95;;;;;;;31.01;94.34;99682.56;5139214;28;20051;-64
2023/08/15 07:08:59;;;;;;;3.10;2.40;;;;;;;31.80;85.96;99693.59;5139335;27;20119;-66
2023/08/15 07:11:25;;;;;;;8.13;2.70;;;;;;;31.38;98.61;99677.91;5139012;28;20051;-66
2023/08/15 07:13:51;;;;;;;2.65;1.90;;;;;;;31.55;88.87;99688.69;5138675;28;20071;-62
2023/08/15 07:16:17;;;;;;;4.65;2.33;;;;;;;30.66;85.53;99688.97;5138881;28;20135;-59
2023/08/15 07:18:43;;;;;;;2.60;2.00;;;;;;;31.82;82.33;99693.09;5138957;28;20204;-57
2023/08/15 07:21:09;;;;;;;2.58;1.67;;;;;;;30.94;88.80;99676.03;5138475;28;20375;-57
2023/08/15 07:23:35;;;;;;;2.75;1.80;;;;;;;31.45;84.32;99690.09;5138827;28;20083;-56
2023/08/15 07:26:01;;;;;;;3.65;2.00;;;;;;;31.88;80.84;99689.06;5138604;28;20084;-57
2023/08/15 07:28:28;;;;;;;4.85;2.03;;;;;;;31.97;81.98;99695.88;5138885;28;20043;-60
2023/08/15 07:30:54;;;;;;;4.07;1.90;;;;;;;31.86;82.04;99683.13;5138411;28;20386;-62
2023/08/15 07:33:20;;;;;;;5.68;2.30;;;;;;;31.68;86.76;99686.25;5138981;28;20058;-61
2023/08/15 07:35:46;;;;;;;4.07;1.90;;;;;;;30.99;85.01;99691.56;5138498;28;20051;-59
2023/08/15 07:38:14;;;;;;;4.35;2.10;;;;;;;31.31;84.32;99680.38;5138173;27;20061;-60
2023/08/15 07:40:40;;;;;;;5.10;2.10;;;;;;;31.87;84.39;99681.06;5138729;28;20115;-63
2023/08/15 07:43:06;;;;;;;6.85;2.08;;;;;;;32.29;83.06;99680.47;5138293;28;20499;-61
2023/08/15 07:45:31;;;;;;;4.20;1.80;;;;;;;32.41;84.97;99677.69;5138715;28;20089;-56
2023/08/15 07:47:58;;;;;;;4.78;2.00;;;;;;;32.50;82.89;99678.31;5138732;28;20150;-55
2023/08/15 07:50:27;;;;;;;5.10;2.15;;;;;;;32.15;80.73;99674.91;5138477;28;20106;-59
2023/08/15 07:52:53;;;;;;;4.13;2.05;;;;;;;33.37;78.35;99679.13;5138204;28;20483;-59
2023/08/15 07:55:20;;;;;;;7.80;2.15;;;;;;;33.04;85.20;99677.66;5138564;28;20468;-60
2023/08/15 07:57:46;;;;;;;2.35;1.70;;;;;;;31.77;77.51;99686.09;5137969;28;20200;-63
2023/08/15 08:00:13;;;;;;;5.38;2.03;;;;;;;33.55;74.42;99683.59;5138271;28;20082;-58
2023/08/15 08:02:39;;;;;;;4.13;2.10;;;;;;;32.38;78.68;99687.22;5138128;28;20413;-57
2023/08/15 08:05:06;;;;;;;3.15;2.10;;;;;;;32.55;78.83;99688.16;5138111;28;20063;-58
2023/08/15 08:07:33;;;;;;;3.63;1.90;;;;;;;33.14;78.40;99684.69;5138372;27;20047;-57
2023/08/15 08:09:59;;;;;;;3.42;1.90;;;;;;;32.69;80.92;99681.56;5137840;28;20192;-62
2023/08/15 08:12:26;;;;;;;5.80;2.47;;;;;;;32.19;83.20;99687.59;5137231;27;20089;-60
2023/08/15 08:14:52;;;;;;;6.78;2.08;;;;;;;33.18;77.58;99681.59;5137853;28;20130;-62
2023/08/15 08:17:18;;;;;;;5.50;2.05;;;;;;;33.09;76.33;99684.66;5138332;28;20047;-61
2023/08/15 08:19:44;;;;;;;3.10;1.70;;;;;;;32.96;75.83;99685.13;5137835;28;20058;-56
2023/08/15 08:22:09;;;;;;;3.15;2.00;;;;;;;32.37;81.56;99677.16;5138118;28;20095;-57
2023/08/15 08:24:35;;;;;;;4.18;1.90;;;;;;;32.83;82.00;99679.84;5137620;28;20055;-56
2023/08/15 08:27:01;;;;;;;3.25;2.10;;;;;;;32.48;84.64;99680.88;5138034;28;20043;-56
2023/08/15 08:29:29;;;;;;;4.82;1.83;;;;;;;32.95;81.61;99680.69;5137788;28;20051;-58
2023/08/15 08:31:55;;;;;;;7.53;2.50;;;;;;;33.90;79.82;99668.97;5137695;28;20423;-62
2023/08/15 08:34:21;;;;;;;8.82;2.47;;;;;;;34.01;77.14;99674.69;5137935;28;20078;-63
2023/08/15 08:36:47;;;;;;;6.45;2.35;;;;;;;33.37;80.35;99671.38;5138015;28;20054;-57
2023/08/15 08:39:13;;;;;;;9.75;2.35;;;;;;;33.90;78.17;99675.44;5137763;27;20066;-57
2023/08/15 08:41:40;;;;;;;4.78;2.25;;;;;;;31.55;91.23;99663.94;5137359;28;20057;-59
2023/08/15 08:44:06;;;;;;;5.05;2.20;;;;;;;33.30;82.25;99674.69;5137954;28;20150;-59
2023/08/15 08:46:33;;;;;;;6.88;2.50;;;;;;;34.09;76.41;99675.75;5137502;28;20100;-55
2023/08/15 08:49:00;;;;;;;5.13;2.30;;;;;;;33.94;84.30;99667.41;5137657;28;20408;-56
2023/08/15 08:51:27;;;;;;;3.17;2.22;;;;;;;33.16;78.17;99672.84;5137131;28;20318;-56
2023/08/15 08:53:54;;;;;;;5.93;2.30;;;;;;;34.29;77.38;99673.94;5137727;28;20138;-61
2023/08/15 08:56:22;;;;;;;12.55;2.80;;;;;;;34.32;70.99;99675.75;5137203;28;20336;-62
2023/08/15 08:58:49;;;;;;;6.45;2.80;;;;;;;33.93;76.55;99676.47;5137358;28;20142;-62
2023/08/15 09:01:16;;;;;;;10.38;2.25;;;;;;;33.91;73.00;99682.66;5137414;28;20055;-56
2023/08/15 09:03:43;;;;;;;12.18;2.60;;;;;;;34.44;72.17;99677.31;5137026;28;20071;-58
2023/08/15 09:06:10;;;;;;;7.20;2.38;;;;;;;34.58;74.56;99672.66;5137391;28;20090;-52
2023/08/15 09:08:36;;;;;;;6.30;2.60;;;;;;;34.35;75.54;99669.78;5137153;27;20055;-56
2023/08/15 09:11:02;;;;;;;7.00;2.55;;;;;;;34.56;73.21;99676.03;5137413;28;20100;-59
2023/08/15 09:13:28;;;;;;;8.82;2.30;;;;;;;34.41;72.79;99675.50;5137302;28;20434;-62
2023/08/15 09:15:56;;;;;;;7.30;2.58;;;;;;;34.39;72.62;99673.16;5137348;28;20423;-61
2023/08/15 09:18:22;;;;;;;3.72;2.10;;;;;;;34.61;72.30;99680.16;5137096;28;20058;-62
2023/08/15 09:20:49;;;;;;;8.27;2.53;;;;;;;33.45;73.89;99665.97;5137441;28;20050;-54
2023/08/15 09:23:16;;;;;;;5.40;2.20;;;;;;;33.78;73.77;99668.16;5137641;27;20144;-56
2023/08/15 09:25:42;;;;;;;4.45;2.17;;;;;;;33.67;77.78;99666.06;5140674;28;20116;-60
2023/08/15 09:28:08;;;;;;;6.60;2.22;;;;;;;33.79;76.88;99663.25;5140755;28;20154;-56
2023/08/15 09:30:34;;;;;;;3.13;2.30;;;;;;;34.37;72.51;99667.22;5140606;28;20137;-59
2023/08/15 09:33:01;;;;;;;4.95;2.42;;;;;;;32.78;72.58;99675.66;5140717;28;20134;-63
2023/08/15 09:35:27;;;;;;;4.68;2.00;;;;;;;33.58;77.36;99663.44;5140367;28;20497;-61
2023/08/15 09:37:53;;;;;;;6.82;2.47;;;;;;;33.04;80.37;99666.31;5140570;27;20058;-60
2023/08/15 09:40:22;;;;;;;4.38;2.10;;;;;;;33.27;80.71;99661.50;5140254;28;20051;-61
2023/08/15 09:42:48;;;;;;;8.80;2.60;;;;;;;33.58;77.69;99649.25;5140723;28;20047;-62
2023/08/15 09:45:15;;;;;;;5.03;2.28;;;;;;;34.29;69.83;99666.19;5140230;28;20107;-57
2023/08/15 09:47:42;;;;;;;7.30;2.40;;;;;;;33.51;77.91;99649.75;5140677;28;20134;-58
2023/08/15 09:50:10;;;;;;;7.35;2.40;;;;;;;34.43;73.72;99650.13;5140132;28;20062;-59
2023/08/15 09:52:38;;;;;;;7.05;2.65;;;;;;;33.45;79.31;99651.75;5140594;28;20083;-62
2023/08/15 09:55:08;;;;;;;5.75;3.03;;;;;;;33.96;81.17;99642.09;5140006;28;20047;-59
2023/08/15 09:57:34;;;;;;;4.47;3.00;;;;;;;33.60;81.74;99638.16;5140381;28;20051;-56
2023/08/15 10:00:00;;;;;;;10.48;3.33;;;;;;;32.39;92.04;99632.03;5140454;28;20142;-61
2023/08/15 10:02:28;;;;;;;5.47;2.83;;;;;;;33.52;82.49;99637.06;5140091;28;20142;-62
2023/08/15 10:05:00;;;;;;;6.15;2.83;;;;;;;33.46;84.05;99634.22;5140219;28;20138;-55
2023/08/15 10:07:31;;;;;;;4.18;2.55;;;;;;;33.72;83.45;99636.09;5140082;27;20269;-53
2023/08/15 10:09:57;;;;;;;6.03;2.83;;;;;;;32.74;94.53;99615.53;5139831;28;20059;-62
2023/08/15 10:12:25;;;;;;;7.93;2.72;;;;;;;33.50;88.40;99619.78;5139805;28;20058;-60
2023/08/15 10:14:54;;;;;;;4.75;2.97;;;;;;;32.65;92.00;99617.78;5140366;28;20053;-62
2023/08/15 10:17:20;;;;;;;4.85;3.00;;;;;;;31.85;100.00;99607.81;5139601;28;20137;-63
2023/08/15 10:19:48;;;;;;;8.98;3.28;;;;;;;32.35;100.00;99610.31;5139643;28;20076;-58
2023/08/15 10:22:17;;;;;;;5.32;3.05;;;;;;;32.98;93.54;99611.53;5139959;28;20061;-63
2023/08/15 10:24:43;;;;;;;4.00;2.97;;;;;;;32.32;100.00;99611.38;5139854;28;20047;-59
2023/08/15 10:27:10;;;;;;;4.63;2.95;;;;;;;32.16;100.00;99606.34;5139839;28;20075;-57
2023/08/15 10:29:51;;;;;;;6.40;2.85;;;;;;;31.66;100.00;99600.97;5139563;28;20150;-59
2023/08/15 10:32:23;;;;;;;5.25;2.78;;;;;;;31.49;100.00;99594.31;5139843;28;20058;-58
2023/08/15 10:34:52;;;;;;;5.82;3.00;;;;;;;31.00;100.00;99594.00;5138814;27;20051;-59
2023/08/15 10:37:30;;;;;;;5.88;3.05;;;;;;;32.46;100.00;99601.16;5139982;27;20141;-56
2023/08/15 10:40:11;;;;;;;6.07;3.17;;;;;;;32.07;100.00;99589.50;5139307;28;20090;-58
2023/08/15 10:43:07;;;;;;;7.20;3.00;;;;;;;32.38;100.00;99602.09;5139974;28;20428;-63
2023/08/15 10:45:36;;;;;;;5.05;2.90;;;;;;;31.63;100.00;99596.28;5139648;28;20047;-58
2023/08/15 10:48:03;;;;;;;4.82;2.80;;;;;;;33.03;97.86;99599.44;5139325;28;20191;-57
2023/08/15 10:50:29;;;;;;;5.28;2.63;;;;;;;33.08;94.37;99603.59;5139559;28;20172;-63
2023/08/15 10:52:59;;;;;;;7.80;3.00;;;;;;;32.25;100.00;99585.50;5139202;28;20079;-65
2023/08/15 10:55:27;;;;;;;6.45;3.10;;;;;;;32.84;99.41;99595.44;5139864;28;20043;-56
2023/08/15 10:57:54;;;;;;;6.32;3.30;;;;;;;32.39;100.00;99578.13;5139023;28;20043;-60
2023/08/15 11:00:21;;;;;;;11.43;3.47;;;;;;;32.88;100.00;99595.97;5139020;28;20051;-60
2023/08/15 11:02:48;;;;;;;8.73;3.97;;;;;;;33.34;100.00;99589.97;5139034;28;20400;-60
2023/08/15 11:05:14;;;;;;;6.63;3.33;;;;;;;32.90;100.00;99587.72;5139182;28;20051;-55
2023/08/15 11:07:41;;;;;;;11.30;3.40;;;;;;;32.69;99.60;99593.56;5139169;27;20134;-63
2023/08/15 11:10:08;;;;;;;8.20;3.78;;;;;;;31.04;100.00;99562.66;5138719;28;20047;-58
2023/08/15 11:12:34;;;;;;;7.13;3.75;;;;;;;31.58;100.00;99560.94;5139219;28;20129;-58
2023/08/15 11:15:00;;;;;;;6.20;3.20;;;;;;;30.58;100.00;99552.00;5138815;28;20053;-59
2023/08/15 11:17:26;;;;;;;5.68;3.50;;;;;;;31.23;100.00;99543.31;5139146;28;20051;-55
2023/08/15 11:19:53;;;;;;;4.47;3.55;;;;;;;31.07;100.00;99533.34;5138651;28;20491;-59
2023/08/15 11:22:20;;;;;;;4.05;3.55;;;;;;;29.51;100.00;99502.22;5139103;28;20119;-60